header
chart

Reported and forecast weather at local airports

Important: not to be used for flight planning purposes.


EGBB METAR fetched   Thursday 13th Dec @ 05:03:54
EGBB 130450Z 12013KT CAVOK 01/M00 Q1015

EGCC METAR fetched   Thursday 13th Dec @ 05:03:52
EGCC 130450Z AUTO 13007KT 070V170 9999 SCT024 03/M02 Q1016 NOSIG

EGGP METAR fetched   Thursday 13th Dec @ 05:03:53
EGGP 130450Z 12019KT 9999 FEW034 04/M00 Q1014

EGNH METAR fetched   Thursday 13th Dec @ 05:03:53
EGNH 122050Z 11023KT CAVOK 04/00 Q1016

EGNM METAR fetched   Thursday 13th Dec @ 05:03:54
EGNM 130450Z 12017KT 9999 FEW018 SCT025 03/M00 Q1017

EGOV METAR fetched   Thursday 13th Dec @ 05:03:55
EGOV 130350Z AUTO 12013KT 9999 BKN060/// BKN170/// 06/M02 Q1010


EGBB TAF fetched   Thursday 13th Dec @ 05:03:55
TAF EGBB 121655Z 1218/1318 12010KT 9999 SCT035 BECMG 1315/1318 06006KT

EGCC TAF fetched   Thursday 13th Dec @ 05:03:52
TAF EGCC 121656Z 1218/1324 13008KT 9999 SCT030 PROB30 TEMPO 1218/1315 16015G25KT

EGGP TAF fetched   Thursday 13th Dec @ 05:03:53
TAF EGGP 121656Z 1218/1318 13011KT 9999 SCT030 PROB30 TEMPO 1218/1318 14015G25KT

EGNM TAF fetched   Thursday 13th Dec @ 05:03:54
TAF TAF EGNM 121655Z 1218/1318 14012KT 9999 FEW012 SCT020 TEMPO 1218/1310 BKN012 PROB30 TEMPO 1300/1309 13015G25KT 8000 BKN007 PROB30 TEMPO 1309/1314 13015G25KT

EGOV TAF fetched   Thursday 13th Dec @ 05:03:55
TAF TAF EGOV 190525Z 1906/1918 04008KT CAVOK PROB30 TEMPO 1906/1912 6000 SHRA TEMPO 1912/1915 4000 +SHRA SCT020 BKN030CB PROB30 TEMPO 1913/1915 VRBG20G30KT 2500 TSGR BKN012

Every effort is made to ensure that this information is free from errors but as it is provided by a third party the accuracy of the reports cannot be guaranteed.